Time;durP1;ratioP1;P1;durP2;ratioP2;P2;SDS_P1;SDS_P2;PMS_P1;PMS_P2;Temp;Humidity;BMP_temperature;BMP_pressure;BME280_temperature;BME280_humidity;BME280_pressure;Samples;Min_cycle;Max_cycle;Signal;HPM_P1;HPM_P2
2024/01/18 00:00:13;;;;;;;27.95;15.57;;;3.20;72.70;;;;;;5027644;28;20049;-60
2024/01/18 00:02:41;;;;;;;27.00;15.25;;;3.20;72.70;;;;;;5034374;28;20044;-60
2024/01/18 00:05:09;;;;;;;24.80;16.42;;;3.20;72.70;;;;;;5049333;28;20087;-60
2024/01/18 00:07:36;;;;;;;23.67;15.57;;;3.30;72.70;;;;;;5048874;28;20048;-61
2024/01/18 00:10:03;;;;;;;23.17;16.00;;;3.30;72.60;;;;;;5032819;28;20120;-60
2024/01/18 00:12:30;;;;;;;27.23;14.80;;;3.20;72.50;;;;;;5044625;28;20387;-60
2024/01/18 00:14:57;;;;;;;23.23;15.82;;;3.20;72.40;;;;;;5047870;28;20566;-60
2024/01/18 00:17:24;;;;;;;23.88;15.90;;;3.30;72.40;;;;;;5043129;28;20045;-60
2024/01/18 00:19:55;;;;;;;21.08;15.15;;;3.20;72.20;;;;;;5038769;28;20474;-60
2024/01/18 00:22:29;;;;;;;24.02;16.02;;;3.20;72.20;;;;;;5048633;28;20426;-60
2024/01/18 00:24:58;;;;;;;28.45;15.43;;;3.20;72.20;;;;;;5047247;28;20100;-60
2024/01/18 00:27:24;;;;;;;26.10;16.08;;;3.20;72.20;;;;;;5035250;28;20797;-60
2024/01/18 00:29:58;;;;;;;24.08;16.58;;;3.20;72.20;;;;;;5046181;28;20407;-60
2024/01/18 00:32:29;;;;;;;21.27;14.65;;;3.20;72.30;;;;;;5035945;28;20049;-60
2024/01/18 00:34:56;;;;;;;26.67;15.18;;;3.20;72.40;;;;;;5045027;28;20079;-60
2024/01/18 00:37:26;;;;;;;23.55;15.70;;;3.20;72.40;;;;;;5047793;28;20080;-60
2024/01/18 00:39:59;;;;;;;22.42;15.85;;;3.30;72.40;;;;;;5035321;28;20426;-61
2024/01/18 00:42:26;;;;;;;27.13;17.13;;;3.20;72.40;;;;;;5044904;28;20094;-60
2024/01/18 00:44:55;;;;;;;25.13;16.42;;;3.20;72.40;;;;;;5046480;28;20049;-60
2024/01/18 00:47:25;;;;;;;26.63;17.02;;;3.30;72.50;;;;;;5045474;28;20045;-60
2024/01/18 00:49:53;;;;;;;25.65;16.90;;;3.20;72.40;;;;;;5034390;28;20687;-60
2024/01/18 00:52:22;;;;;;;23.95;15.05;;;3.20;72.40;;;;;;5041042;28;20063;-60
2024/01/18 00:54:52;;;;;;;23.85;15.35;;;3.20;72.40;;;;;;5045710;28;20584;-60
2024/01/18 00:57:23;;;;;;;23.23;15.68;;;3.30;72.40;;;;;;5038531;28;20053;-60
2024/01/18 00:59:53;;;;;;;22.23;14.70;;;3.20;72.30;;;;;;5044313;28;20048;-60
2024/01/18 01:02:20;;;;;;;26.90;15.73;;;3.30;72.30;;;;;;5031040;28;20407;-60
2024/01/18 01:04:48;;;;;;;22.30;13.93;;;3.20;72.20;;;;;;5043379;28;20068;-58
2024/01/18 01:07:15;;;;;;;26.10;16.95;;;3.30;72.30;;;;;;5046344;28;20047;-60
2024/01/18 01:09:42;;;;;;;23.45;14.68;;;3.20;72.20;;;;;;5045976;28;20041;-61
2024/01/18 01:12:08;;;;;;;22.35;16.17;;;3.20;72.20;;;;;;5030043;28;20140;-60
2024/01/18 01:14:44;;;;;;;23.65;15.32;;;3.20;72.20;;;;;;5043239;28;20095;-60
2024/01/18 01:17:14;;;;;;;22.45;15.55;;;3.20;72.20;;;;;;5040007;28;20465;-60
2024/01/18 01:19:43;;;;;;;23.77;15.35;;;3.20;72.20;;;;;;5044869;28;20059;-60
2024/01/18 01:22:12;;;;;;;20.27;15.55;;;3.20;72.20;;;;;;5037867;28;20505;-60
2024/01/18 01:24:39;;;;;;;20.42;14.70;;;3.20;72.20;;;;;;5045906;28;20048;-61
2024/01/18 01:27:08;;;;;;;21.83;15.90;;;3.20;72.30;;;;;;5044177;28;20049;-60
2024/01/18 01:29:39;;;;;;;16.92;11.27;;;3.20;72.30;;;;;;5034945;28;20056;-60
2024/01/18 01:32:07;;;;;;;23.58;16.20;;;3.20;72.30;;;;;;5033520;28;20100;-59
2024/01/18 01:34:40;;;;;;;20.55;15.35;;;3.20;72.30;;;;;;5044228;28;20051;-60
2024/01/18 01:37:07;;;;;;;22.30;14.95;;;3.20;72.30;;;;;;5044052;28;20052;-61
2024/01/18 01:39:36;;;;;;;21.58;15.65;;;3.20;72.20;;;;;;5044565;28;20045;-61
2024/01/18 01:42:05;;;;;;;23.60;15.65;;;3.20;72.20;;;;;;5035270;28;20396;-60
2024/01/18 01:44:35;;;;;;;23.40;16.67;;;3.20;72.20;;;;;;5045464;28;20083;-60
2024/01/18 01:47:02;;;;;;;20.90;16.15;;;3.20;72.20;;;;;;5044764;28;20037;-60
2024/01/18 01:49:31;;;;;;;25.25;16.42;;;3.20;72.20;;;;;;5037307;28;20045;-60
2024/01/18 01:52:04;;;;;;;25.05;16.17;;;3.20;72.20;;;;;;5040710;28;20103;-60
2024/01/18 01:54:34;;;;;;;21.73;14.93;;;3.20;72.40;;;;;;5049410;28;20048;-59
2024/01/18 01:57:05;;;;;;;23.30;15.75;;;3.20;72.50;;;;;;5044222;28;20141;-60
2024/01/18 01:59:35;;;;;;;23.60;15.37;;;3.20;72.50;;;;;;5053420;28;20128;-61
2024/01/18 02:02:02;;;;;;;26.92;16.90;;;3.20;72.50;;;;;;5032024;28;20049;-60
2024/01/18 02:04:31;;;;;;;21.15;15.40;;;3.20;72.60;;;;;;5046743;28;20033;-60
2024/01/18 02:07:00;;;;;;;25.77;16.77;;;3.20;72.70;;;;;;5045240;28;20495;-61
2024/01/18 02:09:30;;;;;;;22.15;15.45;;;3.20;72.60;;;;;;5037617;28;20033;-60
2024/01/18 02:11:57;;;;;;;23.38;15.15;;;3.20;72.70;;;;;;5039727;28;20124;-61
2024/01/18 02:14:29;;;;;;;17.98;12.43;;;3.20;72.70;;;;;;5048093;28;20067;-60
2024/01/18 02:16:57;;;;;;;23.77;15.82;;;3.20;72.60;;;;;;5039176;28;20080;-60
2024/01/18 02:19:30;;;;;;;28.38;16.42;;;3.20;72.60;;;;;;5034850;28;20055;-60
2024/01/18 02:22:01;;;;;;;20.77;14.88;;;3.20;72.60;;;;;;5043769;28;20047;-60
2024/01/18 02:24:41;;;;;;;23.08;16.63;;;3.20;72.50;;;;;;5047986;28;20048;-60
2024/01/18 02:27:10;;;;;;;26.23;16.42;;;3.30;72.60;;;;;;5036099;28;20434;-60
2024/01/18 02:29:38;;;;;;;24.60;16.10;;;3.30;72.60;;;;;;5038325;28;20141;-59
2024/01/18 02:32:05;;;;;;;22.45;15.90;;;3.30;72.60;;;;;;5034699;28;20511;-60
2024/01/18 02:34:39;;;;;;;26.25;16.48;;;3.30;72.70;;;;;;5045570;28;20094;-60
2024/01/18 02:37:10;;;;;;;22.95;14.55;;;3.30;72.70;;;;;;5044341;28;20046;-60
2024/01/18 02:39:37;;;;;;;22.10;13.93;;;3.30;72.70;;;;;;5046968;28;20049;-60
2024/01/18 02:42:06;;;;;;;26.35;17.25;;;3.30;72.70;;;;;;5035269;28;20037;-60
2024/01/18 02:44:44;;;;;;;23.35;15.55;;;3.30;72.60;;;;;;5043422;28;20045;-60
2024/01/18 02:47:16;;;;;;;23.45;14.85;;;3.30;72.40;;;;;;5057955;28;20132;-60
2024/01/18 02:49:43;;;;;;;21.50;14.80;;;3.30;72.50;;;;;;5044181;28;20120;-60
2024/01/18 02:52:10;;;;;;;27.40;14.77;;;3.30;72.40;;;;;;5038328;28;20038;-60
2024/01/18 02:54:37;;;;;;;22.88;15.98;;;3.30;72.50;;;;;;5046215;28;20106;-60
2024/01/18 02:57:04;;;;;;;25.27;17.30;;;3.20;72.60;;;;;;5043155;28;20045;-60
2024/01/18 02:59:33;;;;;;;21.63;15.68;;;3.30;72.70;;;;;;5035676;28;20048;-60
2024/01/18 03:02:03;;;;;;;28.00;16.52;;;3.30;72.80;;;;;;5029889;28;20041;-60
2024/01/18 03:04:31;;;;;;;24.85;16.33;;;3.30;72.90;;;;;;5043638;28;20033;-60
2024/01/18 03:07:10;;;;;;;23.17;16.48;;;3.30;72.90;;;;;;5037377;28;20039;-60
2024/01/18 03:09:39;;;;;;;25.45;17.08;;;3.30;72.80;;;;;;5045112;28;20115;-60
2024/01/18 03:12:07;;;;;;;20.90;15.70;;;3.30;72.80;;;;;;5037161;28;20041;-60
2024/01/18 03:14:39;;;;;;;22.73;15.93;;;3.30;72.80;;;;;;5045048;28;20726;-60
2024/01/18 03:17:06;;;;;;;24.10;14.73;;;3.30;72.60;;;;;;5041785;28;20034;-60
2024/01/18 03:19:35;;;;;;;24.48;16.17;;;3.30;72.60;;;;;;5040109;28;20039;-60
2024/01/18 03:22:05;;;;;;;22.83;15.52;;;3.30;72.50;;;;;;5032625;28;20043;-60
2024/01/18 03:24:41;;;;;;;21.85;15.55;;;3.30;72.40;;;;;;5043293;28;20041;-60
2024/01/18 03:27:10;;;;;;;22.10;15.32;;;3.30;72.40;;;;;;5042057;28;20041;-60
2024/01/18 03:29:38;;;;;;;23.92;16.08;;;3.20;72.40;;;;;;5034208;28;20029;-60
2024/01/18 03:32:08;;;;;;;29.20;17.05;;;3.20;72.40;;;;;;5032359;28;20464;-60
2024/01/18 03:34:37;;;;;;;25.42;16.35;;;3.20;72.50;;;;;;5042955;28;20102;-59
2024/01/18 03:37:09;;;;;;;22.88;16.27;;;3.20;72.60;;;;;;5038015;28;20033;-60
2024/01/18 03:39:40;;;;;;;22.33;15.40;;;3.20;72.60;;;;;;5038095;28;20112;-60
2024/01/18 03:42:13;;;;;;;25.45;15.93;;;3.20;72.60;;;;;;5040913;28;20072;-60
2024/01/18 03:44:42;;;;;;;25.23;16.42;;;3.20;72.60;;;;;;5039137;28;20495;-60
2024/01/18 03:47:13;;;;;;;24.58;16.25;;;3.20;72.60;;;;;;5040490;28;20041;-60
2024/01/18 03:49:47;;;;;;;25.48;16.25;;;3.20;72.60;;;;;;5033759;28;20121;-61
2024/01/18 03:52:16;;;;;;;25.27;15.77;;;3.20;72.50;;;;;;5037923;28;20041;-61
2024/01/18 03:54:48;;;;;;;24.80;15.38;;;3.20;72.50;;;;;;5042325;28;20029;-60
2024/01/18 03:57:17;;;;;;;20.80;15.77;;;3.20;72.50;;;;;;5039082;28;20483;-60
2024/01/18 03:59:49;;;;;;;22.70;15.27;;;3.20;72.40;;;;;;5038862;28;20132;-60
2024/01/18 04:02:27;;;;;;;;;;;;;;;;;;;;;
2024/01/18 04:04:56;;;;;;;22.60;15.75;;;3.20;72.60;;;;;;5038531;28;20557;-60
2024/01/18 04:07:23;;;;;;;22.33;17.00;;;3.20;72.70;;;;;;5041177;28;20033;-60
2024/01/18 04:09:54;;;;;;;21.38;16.60;;;3.10;72.60;;;;;;5038603;28;20030;-60
2024/01/18 04:12:23;;;;;;;25.52;16.52;;;3.10;72.60;;;;;;5036359;28;20045;-60
2024/01/18 04:14:54;;;;;;;21.98;15.93;;;3.10;72.60;;;;;;5040066;28;20041;-60
2024/01/18 04:17:21;;;;;;;28.38;15.65;;;3.10;72.50;;;;;;5038073;28;20119;-61
2024/01/18 04:19:51;;;;;;;25.67;17.08;;;3.10;72.40;;;;;;5034050;28;20040;-60
2024/01/18 04:22:18;;;;;;;22.85;16.13;;;3.10;72.40;;;;;;5040015;28;20499;-60
2024/01/18 04:24:49;;;;;;;23.45;15.55;;;3.10;72.40;;;;;;5040846;28;20055;-60
2024/01/18 04:27:23;;;;;;;23.00;15.85;;;3.10;72.40;;;;;;5037643;28;20068;-60
2024/01/18 04:29:50;;;;;;;28.50;16.23;;;3.00;72.30;;;;;;5031170;28;20041;-60
2024/01/18 04:32:19;;;;;;;23.83;15.95;;;3.00;72.30;;;;;;5031095;28;20064;-61
2024/01/18 04:34:52;;;;;;;20.67;16.30;;;3.00;72.40;;;;;;5038801;28;20098;-60
2024/01/18 04:37:19;;;;;;;24.45;16.05;;;3.00;72.40;;;;;;5038957;28;20037;-60
2024/01/18 04:39:48;;;;;;;28.08;16.58;;;3.00;72.40;;;;;;5038550;28;20040;-60
2024/01/18 04:42:17;;;;;;;20.55;15.73;;;3.00;72.50;;;;;;5031768;28;20120;-61
2024/01/18 04:44:44;;;;;;;26.55;16.63;;;3.00;72.60;;;;;;5040513;28;20052;-60
2024/01/18 04:47:12;;;;;;;19.08;14.57;;;2.90;72.50;;;;;;5037473;28;20128;-60
2024/01/18 04:49:39;;;;;;;30.33;15.30;;;2.90;72.60;;;;;;5037981;28;20087;-60
2024/01/18 04:52:08;;;;;;;22.95;16.80;;;3.00;72.60;;;;;;5030864;28;20068;-60
2024/01/18 04:54:37;;;;;;;24.73;17.08;;;3.00;72.60;;;;;;5037099;28;20093;-60
2024/01/18 04:57:05;;;;;;;28.38;16.83;;;2.90;72.50;;;;;;5036939;28;20049;-59
2024/01/18 04:59:33;;;;;;;24.85;15.88;;;2.90;72.40;;;;;;5036682;28;20045;-61
2024/01/18 05:02:07;;;;;;;24.38;17.08;;;2.90;72.40;;;;;;5043287;28;20099;-60
2024/01/18 05:04:35;;;;;;;25.67;16.13;;;2.90;72.30;;;;;;5037800;28;20033;-61
2024/01/18 05:07:05;;;;;;;21.60;15.02;;;2.80;72.20;;;;;;5031164;28;20087;-60
2024/01/18 05:09:33;;;;;;;25.98;17.17;;;2.80;72.30;;;;;;5035264;28;20659;-61
2024/01/18 05:12:07;;;;;;;23.02;16.15;;;2.80;72.20;;;;;;5036551;28;20057;-60
2024/01/18 05:14:36;;;;;;;26.08;16.08;;;2.80;72.60;;;;;;5039876;28;20098;-60
2024/01/18 05:17:12;;;;;;;23.98;16.45;;;2.80;72.00;;;;;;5028061;28;20091;-61
2024/01/18 05:19:41;;;;;;;;;;;2.80;71.80;;;;;;5033838;28;20533;-60
2024/01/18 05:22:09;;;;;;;22.52;13.73;;;2.80;71.50;;;;;;5036134;28;19931;-60
2024/01/18 05:24:36;;;;;;;26.23;15.30;;;2.70;71.50;;;;;;5035685;28;20547;-60
2024/01/18 05:27:06;;;;;;;24.98;14.95;;;2.70;71.30;;;;;;5034852;28;20553;-60
2024/01/18 05:29:35;;;;;;;18.92;14.55;;;2.60;71.10;;;;;;5038118;28;20049;-60
2024/01/18 05:32:03;;;;;;;21.13;14.55;;;2.50;71.10;;;;;;5023341;28;20851;-60
2024/01/18 05:34:31;;;;;;;23.35;15.57;;;2.50;71.20;;;;;;5036279;28;20045;-60
2024/01/18 05:37:02;;;;;;;19.65;14.85;;;2.50;71.20;;;;;;5035992;28;20053;-60
2024/01/18 05:39:28;;;;;;;23.27;15.88;;;2.40;71.10;;;;;;5035419;28;20076;-60
2024/01/18 05:41:57;;;;;;;22.67;15.48;;;2.40;71.10;;;;;;5026495;28;20049;-60
2024/01/18 05:44:24;;;;;;;21.30;15.80;;;2.40;71.10;;;;;;5031432;28;20045;-60
2024/01/18 05:46:51;;;;;;;22.42;14.85;;;2.30;71.10;;;;;;5027572;28;20045;-60
2024/01/18 05:49:17;;;;;;;23.05;15.68;;;2.30;71.10;;;;;;5053812;22;20046;-56
2024/01/18 05:51:44;;;;;;;23.63;15.80;;;2.20;71.10;;;;;;5025479;28;20045;-55
2024/01/18 05:54:11;;;;;;;20.98;15.52;;;2.20;71.20;;;;;;5029241;28;20041;-55
2024/01/18 05:56:38;;;;;;;24.60;15.85;;;2.20;71.20;;;;;;5026853;28;20518;-55
2024/01/18 05:59:05;;;;;;;27.35;16.25;;;2.20;71.30;;;;;;5027215;28;20069;-57
2024/01/18 06:01:31;;;;;;;26.73;17.95;;;2.20;71.30;;;;;;5029748;28;20087;-55
2024/01/18 06:03:58;;;;;;;31.75;19.13;;;2.10;71.20;;;;;;5030057;28;20046;-53
2024/01/18 06:06:25;;;;;;;34.13;21.98;;;2.10;71.20;;;;;;5033680;28;20037;-55
2024/01/18 06:08:52;;;;;;;33.00;20.70;;;2.10;71.10;;;;;;5029220;28;20038;-55
2024/01/18 06:11:19;;;;;;;35.70;23.55;;;2.10;71.10;;;;;;5024472;28;20499;-56
2024/01/18 06:13:46;;;;;;;35.28;23.73;;;2.10;71.00;;;;;;5029324;28;20064;-55
2024/01/18 06:16:14;;;;;;;34.88;20.70;;;2.00;70.90;;;;;;5026339;28;20120;-55
2024/01/18 06:18:45;;;;;;;32.33;18.52;;;2.00;70.80;;;;;;5029429;28;20137;-55
2024/01/18 06:21:11;;;;;;;28.83;18.80;;;2.00;70.60;;;;;;5030660;28;20538;-55
2024/01/18 06:23:40;;;;;;;21.92;15.48;;;1.90;70.60;;;;;;5031170;28;20053;-56
2024/01/18 06:26:12;;;;;;;21.40;15.85;;;1.90;70.60;;;;;;5024151;28;20045;-57
2024/01/18 06:28:42;;;;;;;23.00;15.07;;;1.90;70.20;;;;;;5026445;28;20046;-56
2024/01/18 06:31:09;;;;;;;23.52;16.08;;;1.80;70.00;;;;;;5022141;28;20038;-54
2024/01/18 06:33:36;;;;;;;20.48;15.18;;;1.70;69.70;;;;;;5026779;28;20072;-57
2024/01/18 06:36:03;;;;;;;25.95;15.80;;;1.70;69.60;;;;;;5026959;28;20037;-56
2024/01/18 06:38:30;;;;;;;20.30;15.10;;;1.60;69.40;;;;;;5026355;28;20034;-57
2024/01/18 06:40:59;;;;;;;24.55;14.70;;;1.50;69.30;;;;;;5026762;28;20084;-56
2024/01/18 06:43:26;;;;;;;22.25;14.77;;;1.50;69.20;;;;;;5034858;28;20049;-55
2024/01/18 06:45:55;;;;;;;23.95;15.15;;;1.40;69.00;;;;;;5037538;28;20094;-57
2024/01/18 06:48:25;;;;;;;24.27;15.40;;;1.30;68.80;;;;;;5040994;28;20133;-56
2024/01/18 06:50:51;;;;;;;19.70;15.38;;;1.30;68.80;;;;;;5034527;28;20071;-55
2024/01/18 06:53:18;;;;;;;26.98;15.65;;;1.30;68.70;;;;;;5032794;28;20131;-57
2024/01/18 06:55:45;;;;;;;21.20;14.25;;;1.10;68.40;;;;;;5036116;28;20127;-56
2024/01/18 06:58:12;;;;;;;19.48;14.35;;;1.00;68.30;;;;;;5032145;28;20045;-56
2024/01/18 07:00:39;;;;;;;23.02;15.20;;;0.90;68.00;;;;;;5026376;28;20060;-55
2024/01/18 07:03:07;;;;;;;22.33;15.05;;;0.80;67.90;;;;;;5030235;28;20056;-54
2024/01/18 07:05:34;;;;;;;19.75;14.02;;;0.70;67.70;;;;;;5035616;28;20076;-55
2024/01/18 07:08:01;;;;;;;20.05;14.00;;;0.60;67.60;;;;;;5032844;28;20076;-55
2024/01/18 07:10:27;;;;;;;23.85;14.90;;;0.50;67.40;;;;;;5032079;28;20597;-56
2024/01/18 07:12:54;;;;;;;21.40;15.55;;;0.40;67.30;;;;;;5033875;28;20599;-56
2024/01/18 07:15:21;;;;;;;22.42;15.73;;;0.30;67.40;;;;;;5014431;28;20443;-53
2024/01/18 07:17:48;;;;;;;17.88;13.40;;;0.20;67.50;;;;;;5032863;28;20044;-54
2024/01/18 07:20:17;;;;;;;21.42;13.15;;;0.10;67.20;;;;;;5033642;28;20041;-56
2024/01/18 07:22:44;;;;;;;22.80;14.15;;;0.10;67.10;;;;;;5035513;28;20463;-53
2024/01/18 07:25:12;;;;;;;20.38;13.25;;;-0.10;66.80;;;;;;5027964;28;20672;-56
2024/01/18 07:27:39;;;;;;;19.33;13.35;;;-0.20;66.70;;;;;;5036496;28;20092;-57
2024/01/18 07:30:06;;;;;;;22.05;13.57;;;-0.30;66.40;;;;;;5034737;28;20080;-53
2024/01/18 07:32:36;;;;;;;20.85;13.13;;;-0.40;66.10;;;;;;5031651;28;20072;-52
2024/01/18 07:35:03;;;;;;;23.77;13.40;;;-0.50;66.00;;;;;;5028321;28;20586;-52
2024/01/18 07:37:30;;;;;;;21.65;13.18;;;-0.60;65.90;;;;;;5034502;28;20120;-57
2024/01/18 07:39:56;;;;;;;18.73;13.75;;;-0.80;65.90;;;;;;5031297;28;20060;-57
2024/01/18 07:42:23;;;;;;;24.70;13.57;;;-0.90;65.90;;;;;;5034261;28;20051;-56
2024/01/18 07:44:50;;;;;;;22.92;13.90;;;-1.00;65.90;;;;;;5044038;28;20037;-54
2024/01/18 07:47:18;;;;;;;21.35;12.80;;;-1.00;66.10;;;;;;5046850;28;20069;-55
2024/01/18 07:49:46;;;;;;;23.33;13.85;;;-1.10;66.10;;;;;;5043354;28;20041;-54
2024/01/18 07:52:17;;;;;;;21.15;12.25;;;-1.20;66.00;;;;;;5031022;28;20046;-57
2024/01/18 07:54:45;;;;;;;21.70;14.93;;;-1.30;65.90;;;;;;5033554;28;20304;-53
2024/01/18 07:57:13;;;;;;;34.15;19.27;;;-1.40;65.80;;;;;;5033698;28;20042;-53
2024/01/18 07:59:39;;;;;;;32.20;20.00;;;-1.40;65.60;;;;;;5032639;28;20046;-56
2024/01/18 08:02:06;;;;;;;39.28;21.20;;;-1.50;65.20;;;;;;5029086;28;20073;-55
2024/01/18 08:04:33;;;;;;;47.00;22.80;;;-1.60;65.00;;;;;;5033712;28;20045;-57
2024/01/18 08:07:00;;;;;;;39.13;24.58;;;-1.70;64.80;;;;;;5038126;28;20033;-54
2024/01/18 08:09:27;;;;;;;47.10;24.95;;;-1.80;64.70;;;;;;5031066;28;20112;-55
2024/01/18 08:11:53;;;;;;;49.22;26.88;;;-1.90;64.80;;;;;;5032840;28;20037;-56
2024/01/18 08:14:20;;;;;;;45.83;27.10;;;-2.00;64.70;;;;;;5033112;28;20056;-54
2024/01/18 08:16:47;;;;;;;45.78;27.75;;;-2.10;65.50;;;;;;5033558;28;20033;-55
2024/01/18 08:19:14;;;;;;;48.67;28.65;;;-2.20;65.00;;;;;;5029642;28;20598;-56
2024/01/18 08:21:43;;;;;;;48.40;30.48;;;-2.30;65.10;;;;;;5032455;28;20076;-56
2024/01/18 08:24:12;;;;;;;41.13;24.67;;;-2.30;65.30;;;;;;5031548;28;20037;-55
2024/01/18 08:26:41;;;;;;;42.63;24.17;;;-2.40;65.40;;;;;;5034025;28;20048;-55
2024/01/18 08:29:08;;;;;;;39.50;22.52;;;-2.50;65.50;;;;;;5029983;28;20120;-52
2024/01/18 08:31:35;;;;;;;39.50;22.05;;;-2.50;65.70;;;;;;5024464;28;20049;-53
2024/01/18 08:34:02;;;;;;;33.72;20.40;;;-2.50;65.90;;;;;;5031680;28;20099;-55
2024/01/18 08:36:29;;;;;;;36.17;19.92;;;-2.50;66.00;;;;;;5031546;28;20095;-55
2024/01/18 08:38:56;;;;;;;30.33;18.20;;;-2.50;66.30;;;;;;5027156;28;20411;-56
2024/01/18 08:41:23;;;;;;;26.10;17.35;;;-2.50;66.50;;;;;;5025475;28;20507;-55
2024/01/18 08:43:49;;;;;;;26.55;17.60;;;-2.50;66.70;;;;;;5036771;28;20050;-56
2024/01/18 08:46:16;;;;;;;27.02;16.50;;;-2.50;66.80;;;;;;5044599;28;20049;-55
2024/01/18 08:48:43;;;;;;;22.80;15.93;;;-2.50;66.80;;;;;;5035786;28;20519;-55
2024/01/18 08:51:13;;;;;;;25.77;16.42;;;-2.50;66.80;;;;;;5027013;28;20042;-55
2024/01/18 08:53:40;;;;;;;19.90;14.77;;;-2.40;67.00;;;;;;5031183;28;20049;-56
2024/01/18 08:56:07;;;;;;;25.33;16.17;;;-2.40;67.10;;;;;;5029057;28;20079;-55
2024/01/18 08:58:35;;;;;;;20.45;14.10;;;-2.30;67.40;;;;;;5030898;28;20042;-54
2024/01/18 09:01:02;;;;;;;23.00;14.40;;;-2.30;67.60;;;;;;5026975;28;20119;-52
2024/01/18 09:03:29;;;;;;;23.45;14.43;;;-2.20;67.70;;;;;;5029886;28;20042;-51
2024/01/18 09:05:56;;;;;;;19.10;13.50;;;-2.20;67.80;;;;;;5030212;28;20044;-53
2024/01/18 09:08:23;;;;;;;19.63;12.93;;;-2.10;67.90;;;;;;5030322;28;20045;-55
2024/01/18 09:10:50;;;;;;;21.73;13.18;;;-2.10;67.90;;;;;;5028203;28;20136;-54
2024/01/18 09:13:16;;;;;;;18.42;13.55;;;-2.00;68.00;;;;;;5029978;28;20084;-53
2024/01/18 09:15:46;;;;;;;21.73;14.82;;;-1.90;68.00;;;;;;5029991;28;20115;-54
2024/01/18 09:18:13;;;;;;;23.08;14.57;;;-1.90;68.00;;;;;;5029948;28;20056;-53
2024/01/18 09:20:40;;;;;;;28.27;16.27;;;-1.80;67.90;;;;;;5028853;28;20132;-54
2024/01/18 09:23:07;;;;;;;23.85;15.77;;;-1.80;67.80;;;;;;5033766;28;20041;-52
2024/01/18 09:25:42;;;;;;;25.27;16.40;;;-1.70;68.10;;;;;;5030688;28;20048;-53
2024/01/18 09:28:11;;;;;;;31.02;17.67;;;-1.60;68.10;;;;;;5012875;28;20047;-52
2024/01/18 09:30:38;;;;;;;25.38;16.92;;;-1.60;68.60;;;;;;5040405;28;20042;-56
2024/01/18 09:33:10;;;;;;;29.90;18.70;;;-1.50;68.10;;;;;;5037853;28;20060;-55
2024/01/18 09:35:38;;;;;;;27.73;18.52;;;-1.40;68.40;;;;;;5034171;28;20080;-55
2024/01/18 09:38:05;;;;;;;25.30;18.58;;;-1.40;68.50;;;;;;5031648;28;20049;-54
2024/01/18 09:40:32;;;;;;;28.00;17.92;;;-1.30;68.50;;;;;;5011778;28;20049;-54
2024/01/18 09:43:03;;;;;;;30.92;20.23;;;-1.20;68.80;;;;;;5033993;28;20120;-55
2024/01/18 09:45:32;;;;;;;27.40;18.98;;;-1.20;69.00;;;;;;5034475;28;20111;-52
2024/01/18 09:47:59;;;;;;;30.17;19.80;;;-1.10;68.80;;;;;;5038611;28;20160;-55
2024/01/18 09:50:27;;;;;;;26.98;18.92;;;-1.00;68.90;;;;;;5028564;28;20043;-54
2024/01/18 09:52:53;;;;;;;25.92;16.98;;;-1.00;68.90;;;;;;5039883;28;20045;-56
2024/01/18 09:55:20;;;;;;;25.10;18.13;;;-0.90;68.90;;;;;;5048808;28;20052;-53
2024/01/18 09:57:48;;;;;;;24.60;16.60;;;-0.80;69.40;;;;;;5035799;28;20052;-55
2024/01/18 10:00:21;;;;;;;25.88;16.80;;;-0.70;69.30;;;;;;5028100;28;20415;-56
2024/01/18 10:02:48;;;;;;;25.25;17.58;;;-0.70;69.50;;;;;;5030935;28;20038;-53
2024/01/18 10:05:15;;;;;;;25.30;15.80;;;-0.60;69.90;;;;;;5042000;28;20059;-51
2024/01/18 10:07:42;;;;;;;21.73;15.38;;;-0.50;70.10;;;;;;5047089;28;20080;-55
2024/01/18 10:10:12;;;;;;;21.90;15.98;;;-0.40;70.40;;;;;;5023441;28;20110;-53
2024/01/18 10:12:41;;;;;;;29.48;18.70;;;-0.30;71.30;;;;;;5046257;28;20094;-51
2024/01/18 10:15:09;;;;;;;24.95;16.73;;;-0.20;72.10;;;;;;5033555;28;20053;-57
2024/01/18 10:17:38;;;;;;;21.92;15.93;;;-0.10;72.60;;;;;;5037067;28;20048;-55
2024/01/18 10:20:13;;;;;;;24.02;16.58;;;0.00;72.80;;;;;;5042289;28;20135;-54
2024/01/18 10:22:41;;;;;;;21.63;15.85;;;0.20;73.10;;;;;;5050975;28;20116;-56
2024/01/18 10:25:15;;;;;;;21.10;15.55;;;0.30;73.30;;;;;;5034393;28;20448;-57
2024/01/18 10:27:42;;;;;;;22.42;14.95;;;0.40;73.70;;;;;;5031512;28;20068;-55
2024/01/18 10:30:15;;;;;;;21.95;15.52;;;0.60;74.50;;;;;;5033552;28;20503;-57
2024/01/18 10:32:45;;;;;;;19.15;14.43;;;0.70;74.10;;;;;;5031121;28;20049;-54
2024/01/18 10:35:25;;;;;;;19.20;14.10;;;0.80;74.20;;;;;;5033914;28;20029;-52
2024/01/18 10:38:06;;;;;;;20.73;14.55;;;1.00;74.50;;;;;;5033298;28;20041;-55
2024/01/18 10:40:37;;;;;;;24.67;14.75;;;1.10;74.60;;;;;;5026344;28;20442;-55
2024/01/18 10:43:05;;;;;;;20.55;13.65;;;1.20;74.20;;;;;;5035170;28;20048;-54
2024/01/18 10:45:32;;;;;;;20.38;13.43;;;1.30;74.10;;;;;;5049018;28;20740;-51
2024/01/18 10:47:59;;;;;;;18.38;12.73;;;1.40;74.10;;;;;;5033654;28;20087;-54
2024/01/18 10:50:26;;;;;;;18.55;12.82;;;1.60;74.30;;;;;;5032609;28;20450;-55
2024/01/18 10:52:54;;;;;;;16.98;12.15;;;1.70;74.30;;;;;;5048577;28;20683;-52
2024/01/18 10:55:20;;;;;;;17.70;12.43;;;1.80;74.20;;;;;;5042821;28;20045;-50
2024/01/18 10:57:47;;;;;;;14.48;11.50;;;1.80;74.20;;;;;;5034734;28;20057;-50
2024/01/18 11:00:19;;;;;;;16.25;11.80;;;1.90;74.10;;;;;;5033883;28;20144;-54
2024/01/18 11:02:46;;;;;;;20.73;11.63;;;2.00;74.00;;;;;;5038216;28;20041;-50
2024/01/18 11:05:14;;;;;;;16.15;11.43;;;2.10;74.00;;;;;;5040476;28;20099;-54
2024/01/18 11:07:41;;;;;;;19.40;11.38;;;2.20;74.00;;;;;;5046764;28;20550;-53
2024/01/18 11:10:12;;;;;;;19.13;11.85;;;2.20;73.90;;;;;;5028940;28;20124;-51
2024/01/18 11:12:41;;;;;;;19.90;10.52;;;2.40;73.90;;;;;;5037945;28;20041;-53
2024/01/18 11:15:21;;;;;;;13.57;10.07;;;2.40;73.80;;;;;;5041995;28;20067;-49
2024/01/18 11:17:51;;;;;;;15.07;9.75;;;2.50;73.70;;;;;;5039770;28;20051;-51
2024/01/18 11:20:18;;;;;;;16.10;9.98;;;2.60;73.60;;;;;;5029370;28;20048;-54
2024/01/18 11:22:45;;;;;;;13.30;10.13;;;2.60;73.50;;;;;;5042749;28;20045;-53
2024/01/18 11:25:17;;;;;;;14.85;10.68;;;2.70;73.50;;;;;;5031157;28;20041;-50
2024/01/18 11:27:44;;;;;;;17.83;11.35;;;2.70;73.50;;;;;;5033385;28;20111;-51
2024/01/18 11:30:14;;;;;;;13.27;9.63;;;2.90;73.50;;;;;;5023915;28;20517;-52
2024/01/18 11:32:42;;;;;;;13.70;10.02;;;2.90;73.40;;;;;;5026376;28;20049;-49
2024/01/18 11:35:14;;;;;;;11.80;8.75;;;2.90;73.20;;;;;;5016570;28;20414;-49
2024/01/18 11:37:41;;;;;;;13.23;9.25;;;3.00;73.10;;;;;;5044977;28;20391;-52
2024/01/18 11:40:10;;;;;;;12.65;9.00;;;3.10;73.00;;;;;;5037509;28;20037;-52
2024/01/18 11:42:43;;;;;;;14.13;9.25;;;3.10;72.90;;;;;;5034818;28;20499;-54
2024/01/18 11:45:18;;;;;;;14.02;9.52;;;3.20;72.80;;;;;;5048159;28;20041;-54
2024/01/18 11:47:46;;;;;;;12.38;8.82;;;3.20;72.60;;;;;;5034294;28;20038;-54
2024/01/18 11:50:15;;;;;;;15.95;9.40;;;3.20;72.40;;;;;;5031439;28;21000;-50
2024/01/18 11:52:43;;;;;;;14.63;9.70;;;3.30;72.30;;;;;;5033040;28;20029;-50
2024/01/18 11:55:11;;;;;;;13.57;9.80;;;3.40;72.30;;;;;;5034200;28;20080;-53
2024/01/18 11:57:38;;;;;;;11.98;8.70;;;3.40;72.20;;;;;;5059051;22;20102;-58
2024/01/18 12:00:06;;;;;;;15.43;10.20;;;3.40;72.00;;;;;;5049894;28;20040;-58
2024/01/18 12:02:41;;;;;;;18.38;10.10;;;3.50;72.00;;;;;;5048358;28;20040;-55
2024/01/18 12:05:08;;;;;;;17.08;10.88;;;3.60;72.00;;;;;;5050835;28;20094;-54
2024/01/18 12:07:36;;;;;;;14.02;11.25;;;3.60;72.00;;;;;;5051559;28;20091;-55
2024/01/18 12:10:03;;;;;;;11.23;9.60;;;3.70;72.00;;;;;;5061758;28;20063;-55
2024/01/18 12:12:30;;;;;;;12.20;9.77;;;3.70;71.80;;;;;;5068681;28;20090;-56
2024/01/18 12:14:57;;;;;;;15.73;10.63;;;3.70;71.60;;;;;;5070523;28;20041;-56
2024/01/18 12:17:23;;;;;;;17.80;11.15;;;3.70;71.60;;;;;;5066220;28;20486;-56
2024/01/18 12:19:50;;;;;;;16.77;12.00;;;3.80;71.60;;;;;;5060157;28;20060;-56
2024/01/18 12:22:18;;;;;;;15.93;12.45;;;3.80;71.80;;;;;;5066334;28;20127;-56
2024/01/18 12:24:49;;;;;;;18.23;11.18;;;3.80;72.00;;;;;;5070643;28;20436;-56
2024/01/18 12:27:19;;;;;;;14.32;10.55;;;3.90;71.90;;;;;;5060165;28;20162;-57
2024/01/18 12:29:46;;;;;;;15.57;10.07;;;3.90;71.80;;;;;;5060366;28;20041;-57
2024/01/18 12:32:17;;;;;;;11.68;8.75;;;3.90;71.60;;;;;;5064937;28;20055;-56
2024/01/18 12:34:44;;;;;;;13.68;10.18;;;4.00;71.40;;;;;;5064751;28;20087;-57
2024/01/18 12:37:12;;;;;;;12.75;8.27;;;4.00;71.30;;;;;;5056133;28;20133;-55
2024/01/18 12:39:39;;;;;;;10.77;7.53;;;4.10;71.10;;;;;;5058086;28;20064;-57
2024/01/18 12:42:07;;;;;;;11.27;7.20;;;4.10;70.80;;;;;;5060386;28;20871;-57